sensor_id;sensor_type;location;lat;lon;timestamp;P1;durP1;ratioP1;P2;durP2;ratioP2
23747;SDS011;12054;53.662;10.126;2022-12-29T00:02:13;4.05;;;3.47;;
23747;SDS011;12054;53.662;10.126;2022-12-29T00:04:39;4.68;;;3.80;;
23747;SDS011;12054;53.662;10.126;2022-12-29T00:07:04;7.28;;;4.07;;
23747;SDS011;12054;53.662;10.126;2022-12-29T00:09:30;5.10;;;3.80;;
23747;SDS011;12054;53.662;10.126;2022-12-29T00:11:57;5.38;;;4.20;;
23747;SDS011;12054;53.662;10.126;2022-12-29T00:14:23;5.38;;;4.00;;
23747;SDS011;12054;53.662;10.126;2022-12-29T00:17:07;4.40;;;3.88;;
23747;SDS011;12054;53.662;10.126;2022-12-29T00:19:33;6.43;;;4.22;;
23747;SDS011;12054;53.662;10.126;2022-12-29T00:22:17;6.35;;;3.70;;
23747;SDS011;12054;53.662;10.126;2022-12-29T00:25:02;5.47;;;4.00;;
23747;SDS011;12054;53.662;10.126;2022-12-29T00:27:34;6.10;;;4.55;;
23747;SDS011;12054;53.662;10.126;2022-12-29T00:30:19;5.22;;;3.92;;
23747;SDS011;12054;53.662;10.126;2022-12-29T00:33:09;4.90;;;4.40;;
23747;SDS011;12054;53.662;10.126;2022-12-29T00:35:56;5.63;;;3.88;;
23747;SDS011;12054;53.662;10.126;2022-12-29T00:38:25;5.05;;;4.40;;
23747;SDS011;12054;53.662;10.126;2022-12-29T00:41:10;7.07;;;4.82;;
23747;SDS011;12054;53.662;10.126;2022-12-29T00:43:54;6.13;;;4.80;;
23747;SDS011;12054;53.662;10.126;2022-12-29T00:46:32;5.63;;;4.68;;
23747;SDS011;12054;53.662;10.126;2022-12-29T00:48:58;6.40;;;4.80;;
23747;SDS011;12054;53.662;10.126;2022-12-29T00:51:43;5.32;;;4.35;;
23747;SDS011;12054;53.662;10.126;2022-12-29T00:54:09;5.72;;;5.10;;
23747;SDS011;12054;53.662;10.126;2022-12-29T00:56:34;4.88;;;3.60;;
23747;SDS011;12054;53.662;10.126;2022-12-29T00:59:04;6.40;;;4.80;;
23747;SDS011;12054;53.662;10.126;2022-12-29T01:01:30;5.55;;;4.85;;
23747;SDS011;12054;53.662;10.126;2022-12-29T01:03:56;6.45;;;5.13;;
23747;SDS011;12054;53.662;10.126;2022-12-29T01:06:22;5.55;;;4.72;;
23747;SDS011;12054;53.662;10.126;2022-12-29T01:08:47;6.38;;;4.82;;
23747;SDS011;12054;53.662;10.126;2022-12-29T01:11:33;9.00;;;5.15;;
23747;SDS011;12054;53.662;10.126;2022-12-29T01:13:58;7.32;;;4.85;;
23747;SDS011;12054;53.662;10.126;2022-12-29T01:16:24;5.60;;;4.22;;
23747;SDS011;12054;53.662;10.126;2022-12-29T01:18:49;6.05;;;4.97;;
23747;SDS011;12054;53.662;10.126;2022-12-29T01:21:15;4.78;;;4.30;;
23747;SDS011;12054;53.662;10.126;2022-12-29T01:23:40;6.70;;;5.47;;
23747;SDS011;12054;53.662;10.126;2022-12-29T01:26:10;8.50;;;4.68;;
23747;SDS011;12054;53.662;10.126;2022-12-29T01:28:36;4.65;;;4.25;;
23747;SDS011;12054;53.662;10.126;2022-12-29T01:31:04;4.78;;;3.58;;
23747;SDS011;12054;53.662;10.126;2022-12-29T01:33:39;6.28;;;4.60;;
23747;SDS011;12054;53.662;10.126;2022-12-29T01:36:10;5.18;;;4.35;;
23747;SDS011;12054;53.662;10.126;2022-12-29T01:38:38;5.80;;;4.88;;
23747;SDS011;12054;53.662;10.126;2022-12-29T01:41:04;3.72;;;3.33;;
23747;SDS011;12054;53.662;10.126;2022-12-29T01:49:24;6.63;;;5.07;;
23747;SDS011;12054;53.662;10.126;2022-12-29T01:51:55;6.40;;;5.25;;
23747;SDS011;12054;53.662;10.126;2022-12-29T01:54:26;6.05;;;4.95;;
23747;SDS011;12054;53.662;10.126;2022-12-29T01:56:56;5.60;;;4.43;;
23747;SDS011;12054;53.662;10.126;2022-12-29T01:59:24;5.60;;;4.82;;
23747;SDS011;12054;53.662;10.126;2022-12-29T02:01:54;4.88;;;4.28;;
23747;SDS011;12054;53.662;10.126;2022-12-29T02:04:20;10.18;;;5.50;;
23747;SDS011;12054;53.662;10.126;2022-12-29T02:06:53;4.25;;;3.40;;
23747;SDS011;12054;53.662;10.126;2022-12-29T02:09:22;6.45;;;5.35;;
23747;SDS011;12054;53.662;10.126;2022-12-29T02:11:48;5.95;;;4.90;;
23747;SDS011;12054;53.662;10.126;2022-12-29T02:14:14;6.93;;;5.43;;
23747;SDS011;12054;53.662;10.126;2022-12-29T02:22:48;5.68;;;5.07;;
23747;SDS011;12054;53.662;10.126;2022-12-29T02:37:06;7.95;;;6.50;;
23747;SDS011;12054;53.662;10.126;2022-12-29T02:39:57;9.10;;;5.22;;
23747;SDS011;12054;53.662;10.126;2022-12-29T02:42:55;5.50;;;5.00;;
23747;SDS011;12054;53.662;10.126;2022-12-29T02:45:32;8.52;;;4.78;;
23747;SDS011;12054;53.662;10.126;2022-12-29T02:48:30;5.28;;;4.57;;
23747;SDS011;12054;53.662;10.126;2022-12-29T02:51:01;5.90;;;4.97;;
23747;SDS011;12054;53.662;10.126;2022-12-29T02:53:29;8.02;;;5.00;;
23747;SDS011;12054;53.662;10.126;2022-12-29T02:56:16;5.65;;;4.60;;
23747;SDS011;12054;53.662;10.126;2022-12-29T02:58:42;5.57;;;4.32;;
23747;SDS011;12054;53.662;10.126;2022-12-29T03:04:39;5.85;;;4.13;;
23747;SDS011;12054;53.662;10.126;2022-12-29T03:15:43;4.53;;;3.65;;
23747;SDS011;12054;53.662;10.126;2022-12-29T03:18:47;5.32;;;2.97;;
23747;SDS011;12054;53.662;10.126;2022-12-29T03:21:25;6.15;;;4.75;;
23747;SDS011;12054;53.662;10.126;2022-12-29T03:24:26;5.88;;;4.13;;
23747;SDS011;12054;53.662;10.126;2022-12-29T03:26:56;5.05;;;3.70;;
23747;SDS011;12054;53.662;10.126;2022-12-29T03:29:23;6.35;;;3.60;;
23747;SDS011;12054;53.662;10.126;2022-12-29T03:31:51;5.38;;;4.13;;
23747;SDS011;12054;53.662;10.126;2022-12-29T03:34:19;6.68;;;4.13;;
23747;SDS011;12054;53.662;10.126;2022-12-29T03:36:51;4.68;;;4.00;;
23747;SDS011;12054;53.662;10.126;2022-12-29T03:39:20;4.60;;;4.20;;
23747;SDS011;12054;53.662;10.126;2022-12-29T03:41:47;5.53;;;4.32;;
23747;SDS011;12054;53.662;10.126;2022-12-29T03:44:15;4.55;;;3.95;;
23747;SDS011;12054;53.662;10.126;2022-12-29T03:46:41;4.57;;;4.13;;
23747;SDS011;12054;53.662;10.126;2022-12-29T03:49:06;4.70;;;4.07;;
23747;SDS011;12054;53.662;10.126;2022-12-29T03:51:32;6.88;;;3.78;;
23747;SDS011;12054;53.662;10.126;2022-12-29T03:53:58;4.70;;;4.00;;
23747;SDS011;12054;53.662;10.126;2022-12-29T03:56:24;4.63;;;3.45;;
23747;SDS011;12054;53.662;10.126;2022-12-29T03:58:49;4.68;;;3.58;;
23747;SDS011;12054;53.662;10.126;2022-12-29T04:01:15;6.72;;;4.22;;
23747;SDS011;12054;53.662;10.126;2022-12-29T04:03:40;4.03;;;3.13;;
23747;SDS011;12054;53.662;10.126;2022-12-29T04:06:06;3.83;;;3.53;;
23747;SDS011;12054;53.662;10.126;2022-12-29T04:08:32;4.35;;;3.45;;
23747;SDS011;12054;53.662;10.126;2022-12-29T04:10:58;3.50;;;3.20;;
23747;SDS011;12054;53.662;10.126;2022-12-29T04:13:23;3.50;;;3.13;;
23747;SDS011;12054;53.662;10.126;2022-12-29T04:15:49;3.90;;;3.33;;
23747;SDS011;12054;53.662;10.126;2022-12-29T04:18:14;3.70;;;3.10;;
23747;SDS011;12054;53.662;10.126;2022-12-29T04:20:40;3.65;;;3.20;;
23747;SDS011;12054;53.662;10.126;2022-12-29T04:23:24;4.53;;;2.90;;
23747;SDS011;12054;53.662;10.126;2022-12-29T04:25:50;4.57;;;3.60;;
23747;SDS011;12054;53.662;10.126;2022-12-29T04:28:16;3.10;;;2.80;;
23747;SDS011;12054;53.662;10.126;2022-12-29T04:30:42;3.08;;;2.42;;
23747;SDS011;12054;53.662;10.126;2022-12-29T04:33:08;3.05;;;2.72;;
23747;SDS011;12054;53.662;10.126;2022-12-29T04:35:33;3.63;;;2.95;;
23747;SDS011;12054;53.662;10.126;2022-12-29T04:37:59;4.53;;;2.78;;
23747;SDS011;12054;53.662;10.126;2022-12-29T04:40:25;3.38;;;2.60;;
23747;SDS011;12054;53.662;10.126;2022-12-29T04:42:51;3.88;;;2.20;;
23747;SDS011;12054;53.662;10.126;2022-12-29T04:45:16;3.53;;;3.13;;
23747;SDS011;12054;53.662;10.126;2022-12-29T04:47:42;2.53;;;2.30;;
23747;SDS011;12054;53.662;10.126;2022-12-29T04:50:08;2.92;;;2.33;;
23747;SDS011;12054;53.662;10.126;2022-12-29T04:52:33;1.83;;;1.65;;
23747;SDS011;12054;53.662;10.126;2022-12-29T04:54:59;2.97;;;2.20;;
23747;SDS011;12054;53.662;10.126;2022-12-29T04:57:25;2.55;;;2.30;;
23747;SDS011;12054;53.662;10.126;2022-12-29T04:59:51;2.53;;;2.08;;
23747;SDS011;12054;53.662;10.126;2022-12-29T05:02:17;3.05;;;2.13;;
23747;SDS011;12054;53.662;10.126;2022-12-29T05:04:43;2.35;;;2.10;;
23747;SDS011;12054;53.662;10.126;2022-12-29T05:07:08;2.95;;;2.13;;
23747;SDS011;12054;53.662;10.126;2022-12-29T05:09:34;4.35;;;2.15;;
23747;SDS011;12054;53.662;10.126;2022-12-29T05:11:59;3.00;;;2.33;;
23747;SDS011;12054;53.662;10.126;2022-12-29T05:14:25;2.10;;;1.90;;
23747;SDS011;12054;53.662;10.126;2022-12-29T05:16:50;3.60;;;2.10;;
23747;SDS011;12054;53.662;10.126;2022-12-29T05:19:16;3.05;;;2.10;;
23747;SDS011;12054;53.662;10.126;2022-12-29T05:21:42;2.65;;;2.05;;
23747;SDS011;12054;53.662;10.126;2022-12-29T05:24:08;2.63;;;2.15;;
23747;SDS011;12054;53.662;10.126;2022-12-29T05:26:33;3.63;;;2.10;;
23747;SDS011;12054;53.662;10.126;2022-12-29T05:28:59;3.35;;;2.40;;
23747;SDS011;12054;53.662;10.126;2022-12-29T05:31:24;2.25;;;1.90;;
23747;SDS011;12054;53.662;10.126;2022-12-29T05:33:50;1.88;;;1.70;;
23747;SDS011;12054;53.662;10.126;2022-12-29T05:36:16;2.53;;;1.90;;
23747;SDS011;12054;53.662;10.126;2022-12-29T05:38:42;2.90;;;2.58;;
23747;SDS011;12054;53.662;10.126;2022-12-29T05:41:08;2.88;;;2.58;;
23747;SDS011;12054;53.662;10.126;2022-12-29T05:43:33;3.20;;;2.45;;
23747;SDS011;12054;53.662;10.126;2022-12-29T05:45:59;2.63;;;1.83;;
23747;SDS011;12054;53.662;10.126;2022-12-29T05:48:25;2.90;;;2.50;;
23747;SDS011;12054;53.662;10.126;2022-12-29T05:50:51;3.20;;;2.72;;
23747;SDS011;12054;53.662;10.126;2022-12-29T05:53:17;3.30;;;3.00;;
23747;SDS011;12054;53.662;10.126;2022-12-29T05:55:43;4.00;;;3.20;;
23747;SDS011;12054;53.662;10.126;2022-12-29T05:58:09;3.85;;;2.78;;
23747;SDS011;12054;53.662;10.126;2022-12-29T06:00:35;3.72;;;3.05;;
23747;SDS011;12054;53.662;10.126;2022-12-29T06:03:00;3.70;;;2.47;;
23747;SDS011;12054;53.662;10.126;2022-12-29T06:05:26;3.83;;;2.88;;
23747;SDS011;12054;53.662;10.126;2022-12-29T06:07:51;3.22;;;2.72;;
23747;SDS011;12054;53.662;10.126;2022-12-29T06:10:17;4.10;;;2.92;;
23747;SDS011;12054;53.662;10.126;2022-12-29T06:12:43;2.72;;;2.50;;
23747;SDS011;12054;53.662;10.126;2022-12-29T06:15:08;3.10;;;2.80;;
23747;SDS011;12054;53.662;10.126;2022-12-29T06:17:34;3.92;;;2.90;;
23747;SDS011;12054;53.662;10.126;2022-12-29T06:20:00;2.85;;;2.50;;
23747;SDS011;12054;53.662;10.126;2022-12-29T06:22:26;3.58;;;2.28;;
23747;SDS011;12054;53.662;10.126;2022-12-29T06:24:51;2.67;;;2.47;;
23747;SDS011;12054;53.662;10.126;2022-12-29T06:27:17;3.20;;;2.42;;
23747;SDS011;12054;53.662;10.126;2022-12-29T06:29:42;2.92;;;2.35;;
23747;SDS011;12054;53.662;10.126;2022-12-29T06:32:09;5.13;;;2.28;;
23747;SDS011;12054;53.662;10.126;2022-12-29T06:34:34;2.83;;;2.20;;
23747;SDS011;12054;53.662;10.126;2022-12-29T06:37:00;2.33;;;2.13;;
23747;SDS011;12054;53.662;10.126;2022-12-29T06:39:26;2.15;;;1.92;;
23747;SDS011;12054;53.662;10.126;2022-12-29T06:41:52;2.42;;;1.90;;
23747;SDS011;12054;53.662;10.126;2022-12-29T06:44:18;1.80;;;1.70;;
23747;SDS011;12054;53.662;10.126;2022-12-29T06:46:45;2.35;;;1.98;;
23747;SDS011;12054;53.662;10.126;2022-12-29T06:49:10;2.03;;;1.80;;
23747;SDS011;12054;53.662;10.126;2022-12-29T06:51:36;2.63;;;2.00;;
23747;SDS011;12054;53.662;10.126;2022-12-29T06:54:01;2.50;;;1.90;;
23747;SDS011;12054;53.662;10.126;2022-12-29T06:56:27;1.80;;;1.50;;
23747;SDS011;12054;53.662;10.126;2022-12-29T06:58:52;1.85;;;1.63;;
23747;SDS011;12054;53.662;10.126;2022-12-29T07:01:18;2.00;;;1.80;;
23747;SDS011;12054;53.662;10.126;2022-12-29T07:03:43;2.70;;;1.80;;
23747;SDS011;12054;53.662;10.126;2022-12-29T07:06:09;1.98;;;1.77;;
23747;SDS011;12054;53.662;10.126;2022-12-29T07:08:34;2.08;;;1.88;;
23747;SDS011;12054;53.662;10.126;2022-12-29T07:11:00;1.60;;;1.50;;
23747;SDS011;12054;53.662;10.126;2022-12-29T07:13:25;2.42;;;1.83;;
23747;SDS011;12054;53.662;10.126;2022-12-29T07:15:51;1.60;;;1.50;;
23747;SDS011;12054;53.662;10.126;2022-12-29T07:18:17;2.30;;;2.10;;
23747;SDS011;12054;53.662;10.126;2022-12-29T07:20:42;2.42;;;1.85;;
23747;SDS011;12054;53.662;10.126;2022-12-29T07:23:08;2.10;;;1.90;;
23747;SDS011;12054;53.662;10.126;2022-12-29T07:25:33;2.40;;;2.20;;
23747;SDS011;12054;53.662;10.126;2022-12-29T07:28:00;1.98;;;1.80;;
23747;SDS011;12054;53.662;10.126;2022-12-29T07:30:26;2.28;;;1.80;;
23747;SDS011;12054;53.662;10.126;2022-12-29T07:32:52;2.40;;;1.92;;
23747;SDS011;12054;53.662;10.126;2022-12-29T07:35:17;4.70;;;2.10;;
23747;SDS011;12054;53.662;10.126;2022-12-29T07:37:43;2.00;;;1.90;;
23747;SDS011;12054;53.662;10.126;2022-12-29T07:40:09;2.40;;;2.03;;
23747;SDS011;12054;53.662;10.126;2022-12-29T07:42:35;2.25;;;1.88;;
23747;SDS011;12054;53.662;10.126;2022-12-29T07:45:00;2.63;;;2.40;;
23747;SDS011;12054;53.662;10.126;2022-12-29T07:47:26;2.63;;;2.33;;
23747;SDS011;12054;53.662;10.126;2022-12-29T07:49:52;2.97;;;2.67;;
23747;SDS011;12054;53.662;10.126;2022-12-29T07:52:17;2.45;;;2.25;;
23747;SDS011;12054;53.662;10.126;2022-12-29T07:54:43;2.63;;;2.40;;
23747;SDS011;12054;53.662;10.126;2022-12-29T07:57:08;3.22;;;2.08;;
23747;SDS011;12054;53.662;10.126;2022-12-29T07:59:34;2.80;;;2.15;;
23747;SDS011;12054;53.662;10.126;2022-12-29T08:01:59;3.28;;;2.28;;
23747;SDS011;12054;53.662;10.126;2022-12-29T08:04:25;3.25;;;2.13;;
23747;SDS011;12054;53.662;10.126;2022-12-29T08:06:51;2.95;;;2.17;;
23747;SDS011;12054;53.662;10.126;2022-12-29T08:09:16;4.05;;;2.33;;
23747;SDS011;12054;53.662;10.126;2022-12-29T08:11:42;2.60;;;2.25;;
23747;SDS011;12054;53.662;10.126;2022-12-29T08:14:08;3.65;;;2.33;;
23747;SDS011;12054;53.662;10.126;2022-12-29T08:16:34;2.70;;;2.30;;
23747;SDS011;12054;53.662;10.126;2022-12-29T08:19:00;3.40;;;2.25;;
23747;SDS011;12054;53.662;10.126;2022-12-29T08:21:29;3.38;;;2.20;;
23747;SDS011;12054;53.662;10.126;2022-12-29T08:23:55;2.70;;;2.00;;
23747;SDS011;12054;53.662;10.126;2022-12-29T08:26:20;2.97;;;2.00;;
23747;SDS011;12054;53.662;10.126;2022-12-29T08:28:46;2.00;;;1.88;;
23747;SDS011;12054;53.662;10.126;2022-12-29T08:31:12;1.65;;;1.55;;
23747;SDS011;12054;53.662;10.126;2022-12-29T08:33:37;2.47;;;1.60;;
23747;SDS011;12054;53.662;10.126;2022-12-29T08:36:06;1.50;;;1.40;;
23747;SDS011;12054;53.662;10.126;2022-12-29T08:38:32;2.97;;;1.80;;
23747;SDS011;12054;53.662;10.126;2022-12-29T08:40:58;4.80;;;1.63;;
23747;SDS011;12054;53.662;10.126;2022-12-29T08:43:26;2.20;;;1.63;;
23747;SDS011;12054;53.662;10.126;2022-12-29T08:45:53;2.30;;;1.50;;
23747;SDS011;12054;53.662;10.126;2022-12-29T08:48:18;2.00;;;1.60;;
23747;SDS011;12054;53.662;10.126;2022-12-29T08:50:46;1.70;;;1.60;;
23747;SDS011;12054;53.662;10.126;2022-12-29T08:53:12;2.03;;;1.50;;
23747;SDS011;12054;53.662;10.126;2022-12-29T08:55:38;2.13;;;1.88;;
23747;SDS011;12054;53.662;10.126;2022-12-29T08:58:04;2.58;;;1.80;;
23747;SDS011;12054;53.662;10.126;2022-12-29T09:00:29;2.88;;;1.75;;
23747;SDS011;12054;53.662;10.126;2022-12-29T09:02:55;3.63;;;1.50;;
23747;SDS011;12054;53.662;10.126;2022-12-29T09:05:20;2.08;;;1.67;;
23747;SDS011;12054;53.662;10.126;2022-12-29T09:07:46;3.05;;;1.30;;
23747;SDS011;12054;53.662;10.126;2022-12-29T09:10:11;2.53;;;1.70;;
23747;SDS011;12054;53.662;10.126;2022-12-29T09:12:37;3.30;;;2.13;;
23747;SDS011;12054;53.662;10.126;2022-12-29T09:15:03;4.40;;;2.10;;
23747;SDS011;12054;53.662;10.126;2022-12-29T09:17:30;2.60;;;1.60;;
23747;SDS011;12054;53.662;10.126;2022-12-29T09:20:11;2.70;;;1.45;;
23747;SDS011;12054;53.662;10.126;2022-12-29T09:22:38;2.97;;;1.20;;
23747;SDS011;12054;53.662;10.126;2022-12-29T09:25:04;2.90;;;1.40;;
23747;SDS011;12054;53.662;10.126;2022-12-29T09:27:30;2.55;;;1.20;;
23747;SDS011;12054;53.662;10.126;2022-12-29T09:29:55;4.40;;;1.20;;
23747;SDS011;12054;53.662;10.126;2022-12-29T09:32:21;2.17;;;1.27;;
23747;SDS011;12054;53.662;10.126;2022-12-29T09:34:47;3.35;;;1.20;;
23747;SDS011;12054;53.662;10.126;2022-12-29T09:37:12;3.65;;;1.30;;
23747;SDS011;12054;53.662;10.126;2022-12-29T09:39:38;3.13;;;1.00;;
23747;SDS011;12054;53.662;10.126;2022-12-29T09:42:08;2.60;;;1.10;;
23747;SDS011;12054;53.662;10.126;2022-12-29T09:44:47;2.75;;;0.80;;
23747;SDS011;12054;53.662;10.126;2022-12-29T09:47:25;3.88;;;1.05;;
23747;SDS011;12054;53.662;10.126;2022-12-29T09:52:32;3.92;;;0.88;;
23747;SDS011;12054;53.662;10.126;2022-12-29T09:55:03;3.70;;;1.00;;
23747;SDS011;12054;53.662;10.126;2022-12-29T09:57:48;2.92;;;1.10;;
23747;SDS011;12054;53.662;10.126;2022-12-29T10:00:20;1.90;;;0.95;;
23747;SDS011;12054;53.662;10.126;2022-12-29T10:05:42;2.85;;;1.00;;
23747;SDS011;12054;53.662;10.126;2022-12-29T10:08:36;2.38;;;1.08;;
23747;SDS011;12054;53.662;10.126;2022-12-29T10:13:56;4.03;;;1.50;;
23747;SDS011;12054;53.662;10.126;2022-12-29T10:25:20;2.63;;;1.00;;
23747;SDS011;12054;53.662;10.126;2022-12-29T10:27:50;4.13;;;1.25;;
23747;SDS011;12054;53.662;10.126;2022-12-29T10:30:18;4.50;;;1.30;;
23747;SDS011;12054;53.662;10.126;2022-12-29T10:32:49;3.33;;;1.13;;
23747;SDS011;12054;53.662;10.126;2022-12-29T10:35:21;6.22;;;1.30;;
23747;SDS011;12054;53.662;10.126;2022-12-29T10:45:49;2.60;;;0.93;;
23747;SDS011;12054;53.662;10.126;2022-12-29T10:48:19;4.18;;;0.90;;
23747;SDS011;12054;53.662;10.126;2022-12-29T10:50:47;5.85;;;0.90;;
23747;SDS011;12054;53.662;10.126;2022-12-29T10:53:22;3.60;;;1.10;;
23747;SDS011;12054;53.662;10.126;2022-12-29T10:55:50;2.70;;;1.05;;
23747;SDS011;12054;53.662;10.126;2022-12-29T10:58:16;2.38;;;1.00;;
23747;SDS011;12054;53.662;10.126;2022-12-29T11:00:43;4.90;;;1.27;;
23747;SDS011;12054;53.662;10.126;2022-12-29T11:05:52;5.57;;;1.20;;
23747;SDS011;12054;53.662;10.126;2022-12-29T11:08:20;4.40;;;1.20;;
23747;SDS011;12054;53.662;10.126;2022-12-29T11:11:03;2.80;;;0.90;;
23747;SDS011;12054;53.662;10.126;2022-12-29T11:13:31;4.63;;;1.05;;
23747;SDS011;12054;53.662;10.126;2022-12-29T11:15:59;3.92;;;1.15;;
23747;SDS011;12054;53.662;10.126;2022-12-29T11:21:06;3.17;;;1.00;;
23747;SDS011;12054;53.662;10.126;2022-12-29T11:23:55;3.58;;;1.05;;
23747;SDS011;12054;53.662;10.126;2022-12-29T11:26:25;9.73;;;1.30;;
23747;SDS011;12054;53.662;10.126;2022-12-29T11:29:04;3.97;;;1.02;;
23747;SDS011;12054;53.662;10.126;2022-12-29T11:31:45;3.78;;;0.93;;
23747;SDS011;12054;53.662;10.126;2022-12-29T11:34:19;3.80;;;1.05;;
23747;SDS011;12054;53.662;10.126;2022-12-29T11:36:47;8.95;;;1.58;;
23747;SDS011;12054;53.662;10.126;2022-12-29T11:39:28;3.45;;;1.10;;
23747;SDS011;12054;53.662;10.126;2022-12-29T11:41:55;3.85;;;1.15;;
23747;SDS011;12054;53.662;10.126;2022-12-29T11:44:22;1.30;;;0.63;;
23747;SDS011;12054;53.662;10.126;2022-12-29T11:46:49;4.40;;;1.00;;
23747;SDS011;12054;53.662;10.126;2022-12-29T11:49:20;3.35;;;0.82;;
23747;SDS011;12054;53.662;10.126;2022-12-29T11:51:49;5.40;;;0.93;;
23747;SDS011;12054;53.662;10.126;2022-12-29T11:54:21;2.00;;;1.35;;
23747;SDS011;12054;53.662;10.126;2022-12-29T11:56:54;4.85;;;0.77;;
23747;SDS011;12054;53.662;10.126;2022-12-29T12:01:54;4.03;;;0.80;;
23747;SDS011;12054;53.662;10.126;2022-12-29T12:04:24;2.38;;;0.65;;
23747;SDS011;12054;53.662;10.126;2022-12-29T12:07:07;3.85;;;1.00;;
23747;SDS011;12054;53.662;10.126;2022-12-29T12:09:51;4.57;;;0.80;;
23747;SDS011;12054;53.662;10.126;2022-12-29T12:12:29;3.88;;;0.90;;
23747;SDS011;12054;53.662;10.126;2022-12-29T12:14:59;3.00;;;0.90;;
23747;SDS011;12054;53.662;10.126;2022-12-29T12:18:30;3.03;;;0.85;;
23747;SDS011;12054;53.662;10.126;2022-12-29T12:20:36;2.05;;;0.85;;
23747;SDS011;12054;53.662;10.126;2022-12-29T12:34:33;2.90;;;1.20;;
23747;SDS011;12054;53.662;10.126;2022-12-29T12:37:19;5.10;;;1.20;;
23747;SDS011;12054;53.662;10.126;2022-12-29T12:40:02;4.22;;;1.48;;
23747;SDS011;12054;53.662;10.126;2022-12-29T12:43:05;4.05;;;1.10;;
23747;SDS011;12054;53.662;10.126;2022-12-29T12:45:59;5.20;;;1.15;;
23747;SDS011;12054;53.662;10.126;2022-12-29T12:54:06;3.30;;;1.08;;
23747;SDS011;12054;53.662;10.126;2022-12-29T12:59:28;5.90;;;1.27;;
23747;SDS011;12054;53.662;10.126;2022-12-29T13:02:00;6.70;;;1.23;;
23747;SDS011;12054;53.662;10.126;2022-12-29T13:04:43;6.55;;;1.00;;
23747;SDS011;12054;53.662;10.126;2022-12-29T13:07:50;4.97;;;1.08;;
23747;SDS011;12054;53.662;10.126;2022-12-29T13:10:21;4.57;;;1.00;;
23747;SDS011;12054;53.662;10.126;2022-12-29T13:13:13;8.50;;;1.38;;
23747;SDS011;12054;53.662;10.126;2022-12-29T13:15:54;4.18;;;1.20;;
23747;SDS011;12054;53.662;10.126;2022-12-29T13:18:32;4.32;;;1.00;;
23747;SDS011;12054;53.662;10.126;2022-12-29T13:24:05;5.13;;;1.20;;
23747;SDS011;12054;53.662;10.126;2022-12-29T13:29:45;3.88;;;1.17;;
23747;SDS011;12054;53.662;10.126;2022-12-29T13:35:19;6.05;;;1.27;;
23747;SDS011;12054;53.662;10.126;2022-12-29T13:37:53;2.17;;;0.70;;
23747;SDS011;12054;53.662;10.126;2022-12-29T13:40:41;3.30;;;1.13;;
23747;SDS011;12054;53.662;10.126;2022-12-29T13:43:10;7.82;;;3.05;;
23747;SDS011;12054;53.662;10.126;2022-12-29T13:45:38;5.03;;;1.38;;
23747;SDS011;12054;53.662;10.126;2022-12-29T13:48:15;4.53;;;1.10;;
23747;SDS011;12054;53.662;10.126;2022-12-29T13:50:48;6.88;;;1.23;;
23747;SDS011;12054;53.662;10.126;2022-12-29T13:58:38;5.10;;;1.30;;
23747;SDS011;12054;53.662;10.126;2022-12-29T14:01:22;6.82;;;1.80;;
23747;SDS011;12054;53.662;10.126;2022-12-29T14:03:59;5.38;;;1.80;;
23747;SDS011;12054;53.662;10.126;2022-12-29T14:08:55;8.60;;;2.03;;
23747;SDS011;12054;53.662;10.126;2022-12-29T14:11:24;6.03;;;1.63;;
23747;SDS011;12054;53.662;10.126;2022-12-29T14:13:58;4.38;;;1.17;;
23747;SDS011;12054;53.662;10.126;2022-12-29T14:16:35;4.63;;;1.17;;
23747;SDS011;12054;53.662;10.126;2022-12-29T14:19:05;3.33;;;0.93;;
23747;SDS011;12054;53.662;10.126;2022-12-29T14:21:49;3.17;;;1.13;;
23747;SDS011;12054;53.662;10.126;2022-12-29T14:34:46;3.92;;;1.23;;
23747;SDS011;12054;53.662;10.126;2022-12-29T14:40:12;3.80;;;1.10;;
23747;SDS011;12054;53.662;10.126;2022-12-29T14:42:47;3.13;;;1.10;;
23747;SDS011;12054;53.662;10.126;2022-12-29T14:47:44;5.35;;;1.10;;
23747;SDS011;12054;53.662;10.126;2022-12-29T14:50:16;3.05;;;0.98;;
23747;SDS011;12054;53.662;10.126;2022-12-29T14:52:58;6.00;;;1.08;;
23747;SDS011;12054;53.662;10.126;2022-12-29T14:58:06;6.72;;;1.30;;
23747;SDS011;12054;53.662;10.126;2022-12-29T15:00:46;4.22;;;1.35;;
23747;SDS011;12054;53.662;10.126;2022-12-29T15:03:14;5.03;;;1.50;;
23747;SDS011;12054;53.662;10.126;2022-12-29T15:05:43;2.85;;;1.13;;
23747;SDS011;12054;53.662;10.126;2022-12-29T15:08:10;4.65;;;0.95;;
23747;SDS011;12054;53.662;10.126;2022-12-29T15:11:41;5.78;;;1.23;;
23747;SDS011;12054;53.662;10.126;2022-12-29T15:13:42;3.80;;;1.10;;
23747;SDS011;12054;53.662;10.126;2022-12-29T15:19:20;2.35;;;1.02;;
23747;SDS011;12054;53.662;10.126;2022-12-29T15:21:47;3.60;;;1.05;;
23747;SDS011;12054;53.662;10.126;2022-12-29T15:24:12;6.43;;;1.30;;
23747;SDS011;12054;53.662;10.126;2022-12-29T15:26:53;6.20;;;1.33;;
23747;SDS011;12054;53.662;10.126;2022-12-29T15:29:39;5.03;;;1.10;;
23747;SDS011;12054;53.662;10.126;2022-12-29T15:34:40;6.18;;;1.33;;
23747;SDS011;12054;53.662;10.126;2022-12-29T15:37:18;6.15;;;1.67;;
23747;SDS011;12054;53.662;10.126;2022-12-29T15:39:57;3.75;;;1.27;;
23747;SDS011;12054;53.662;10.126;2022-12-29T15:44:57;4.70;;;1.40;;
23747;SDS011;12054;53.662;10.126;2022-12-29T15:47:26;6.22;;;1.45;;
23747;SDS011;12054;53.662;10.126;2022-12-29T15:50:05;3.60;;;1.10;;
23747;SDS011;12054;53.662;10.126;2022-12-29T15:52:34;4.63;;;1.42;;
23747;SDS011;12054;53.662;10.126;2022-12-29T15:55:03;3.95;;;1.40;;
23747;SDS011;12054;53.662;10.126;2022-12-29T15:57:30;5.75;;;1.42;;
23747;SDS011;12054;53.662;10.126;2022-12-29T16:00:03;4.45;;;1.40;;
23747;SDS011;12054;53.662;10.126;2022-12-29T16:02:45;5.70;;;1.50;;
23747;SDS011;12054;53.662;10.126;2022-12-29T16:05:16;5.22;;;1.33;;
23747;SDS011;12054;53.662;10.126;2022-12-29T16:07:51;7.97;;;2.22;;
23747;SDS011;12054;53.662;10.126;2022-12-29T16:10:22;6.18;;;1.70;;
23747;SDS011;12054;53.662;10.126;2022-12-29T16:12:56;5.90;;;1.75;;
23747;SDS011;12054;53.662;10.126;2022-12-29T16:15:31;6.22;;;1.83;;
23747;SDS011;12054;53.662;10.126;2022-12-29T16:17:57;5.00;;;2.20;;
23747;SDS011;12054;53.662;10.126;2022-12-29T16:20:24;5.47;;;2.47;;
23747;SDS011;12054;53.662;10.126;2022-12-29T16:22:58;8.00;;;3.67;;
23747;SDS011;12054;53.662;10.126;2022-12-29T16:25:26;7.32;;;2.63;;
23747;SDS011;12054;53.662;10.126;2022-12-29T16:27:56;8.68;;;3.00;;
23747;SDS011;12054;53.662;10.126;2022-12-29T16:30:23;7.88;;;2.25;;
23747;SDS011;12054;53.662;10.126;2022-12-29T16:32:54;6.13;;;2.45;;
23747;SDS011;12054;53.662;10.126;2022-12-29T16:35:25;10.70;;;2.58;;
23747;SDS011;12054;53.662;10.126;2022-12-29T16:38:34;3.53;;;1.73;;
23747;SDS011;12054;53.662;10.126;2022-12-29T16:40:58;5.43;;;2.90;;
23747;SDS011;12054;53.662;10.126;2022-12-29T16:43:29;8.73;;;2.50;;
23747;SDS011;12054;53.662;10.126;2022-12-29T16:48:24;6.70;;;2.17;;
23747;SDS011;12054;53.662;10.126;2022-12-29T16:53:34;9.38;;;2.53;;
23747;SDS011;12054;53.662;10.126;2022-12-29T16:56:13;5.85;;;2.60;;
23747;SDS011;12054;53.662;10.126;2022-12-29T16:58:41;8.02;;;3.13;;
23747;SDS011;12054;53.662;10.126;2022-12-29T17:01:12;7.90;;;3.22;;
23747;SDS011;12054;53.662;10.126;2022-12-29T17:03:46;7.63;;;2.90;;
23747;SDS011;12054;53.662;10.126;2022-12-29T17:06:32;5.85;;;2.47;;
23747;SDS011;12054;53.662;10.126;2022-12-29T17:08:58;11.23;;;2.95;;
23747;SDS011;12054;53.662;10.126;2022-12-29T17:11:30;6.80;;;2.75;;